Virtual LH

Virtual LH. There's no better way to fly
Since 2013.



AIRPORT MAP

METAR AND TAF INFORMATION

METAR FOR LFKB
ADDS - METARS form results

(1058 UTC 20 June 2019)
Data provider http://aviationweather.gov/metar/data/
 
METAR text: LFKB 201030Z AUTO 11005KT 070V160 9999 FEW028 27/18 Q1014 NOSIG
Conditions at: LFKB (BASTIA/PORETTA , FR) observed 1030 UTC 20 June 2019
Temperature: 27.0°C (81°F)
Dewpoint: 18.0°C (64°F) [RH = 58%]
Pressure (altimeter): 29.94 inches Hg (1014.0 mb)
Winds: from the ESE (110 degrees) at 6 MPH (5 knots; 2.6 m/s)
Visibility: 6 or more miles (10+ km)
Ceiling: at least 12,000 feet AGL
Clouds: few clouds at 2800 feet AGL
Weather: no significant weather observed at this time

METAR text: LFKB 201000Z AUTO 12005KT 050V170 CAVOK 26/19 Q1014 NOSIG
Conditions at: LFKB (BASTIA/PORETTA , FR) observed 1000 UTC 20 June 2019
Temperature: 26.0°C (79°F)
Dewpoint: 19.0°C (66°F) [RH = 65%]
Pressure (altimeter): 29.94 inches Hg (1014.0 mb)
Winds: from the ESE (120 degrees) at 6 MPH (5 knots; 2.6 m/s)
Visibility: 6 or more miles (10+ km)
Ceiling: ceiling and visibility are OK
Clouds: unknown
Weather: no significant weather observed at this time

Forecast for: LFKB (BASTIA/PORETTA , FR)
Text: TAF LFKB 200800Z 2009/2109 10010KT CAVOK TX27/2012Z TN18/2104Z
Forecast period: 0900 to 1900 UTC 20 June 2019
Forecast type: FROM: standard forecast or significant change
Winds: from the E (100 degrees) at 12 MPH (10 knots; 5.1 m/s)
Visibility: 6 or more miles 10+ km)
Ceiling: unknown
Clouds: missing
Weather: no significant weather forecast for this period
Text: BECMG 2019/2021 24004KT
Forecast period: 1900 UTC 20 June 2019 to 0900 UTC 21 June 2019
Forecast type: BECOMING: Conditions expected to become as follows by 2100 UTC 20 June 2019
Winds: from the WSW (240 degrees) at 5 MPH (4 knots; 2.1 m/s)
Visibility: 6 or more miles 10+ km)
Ceiling: unknown
Clouds: missing
Weather: no significant weather forecast for this period
Text: PROB40
Forecast period: 2300 UTC 20 June 2019 to 0500 UTC 21 June 2019
Forecast type: TEMPORARY: The following changes expected for less than half the time period
Visibility: missing
Ceiling: 700 feet AGL
Clouds: broken clouds at 700 feet AGL
Weather: no significant weather forecast for this period

RUNWAY INFORMATION

Runway 16 Runway length 8266 ft Runway width 148 ft
Runway elevation 13 ft Runway displaced threshold 0 ft Runway heading 163
Runway 34 Runway length 8266 ft Runway width 148 ft
Runway elevation 26 ft Runway displaced threshold 0 ft Runway heading 343

AIRPORT FREQUENCIES

Type AFIS Name BASTIA INF Frequency 124.725 MHZ
Type APP Name BASTIA RAD Frequency 123.825 MHZ
Type ARR Name BASTIA APP Frequency 37.85 MHZ
Type ATIS Name BASTIA ATI Frequency 125.925 MHZ
Type GND Name GND Frequency 121.825 MHZ
Type TWR Name BASTIA TWR Frequency 118 MHZ

AIRPORT NEAR NAVIGATION AIDS

Type VOR-DME Name Bastia Frequency 114150 KHZ